Portada
METAR-TAF:

METAR-TAF

Aeropuertos :

Murcia, España

Aeropuerto de Murcia-San Javier

latitud: 37-47N, longitud: 000-48W, altitud: 5 m

Observación

El informe se hizo hace 40 minutos, a las 16:00 UTC
Viento 14 kt del noreste, variando entre norte-noreste y este
Temperatura 24°C
Humedad 65%
Presión 1016 hPa
Visibilidad 10 km o más
sin nubes por debajo de 1500 m y sin presencia de cumulonimbus.

METAR: LELC 281600Z 05014KT 020V080 CAVOK 24/17 Q1016 NOSIG

Hora: 18:40 (16:40 UTC)

Pronóstico

El informe se hizo hace 5 horas y 40 minutos, a las 11:00 UTC
Pronóstico válido del 28 a las 12 UTC al 29 a las 12 UTC
Viento 9 kt del noreste
Visibilidad 10 km o más
sin nubes por debajo de 1500 m y sin presencia de cumulonimbus.
Temporalmente
del 28 a las 12 UTC al 28 a las 23 UTC
Viento 19 kt del noreste con ráfagas de 29 kt

TAF: LELC 281100Z 2812/2912 04009KT CAVOK TX24/2813Z TN19/2905Z TEMPO 2812/2823 04019G29KT

Observaciones y pronósticos meteorológicos de más de 4000 aeropuertos (mensajes METAR y TAF).

Los puntos amarillos y rojos representan las estaciones disponibles.

Ponga el ratón en el punto deseado para ver el nombre de la estación.

Haga clic para ver las observaciones y los pronósticos meteorológicos.

Para cambiar el mapa : haga clic en los botones verdes con una cruz de color negro para hacer un zoom, en el botón verde con un guión para alejar o en las flechas verdes para mapas adyacentes.


METAR-TAF: